createdAt,value
2022-09-23T00:01:00.798Z,101403.88
2022-09-23T00:03:29.177Z,101403.78
2022-09-23T00:06:00.560Z,101401.38
2022-09-23T00:08:27.362Z,101400.84
2022-09-23T00:10:54.221Z,101410.22
2022-09-23T00:13:20.638Z,101402.63
2022-09-23T00:15:47.100Z,101406.63
2022-09-23T00:18:13.728Z,101402.19
2022-09-23T00:20:40.463Z,101403.84
2022-09-23T00:23:07.096Z,101393.72
2022-09-23T00:25:33.935Z,101400.00
2022-09-23T00:28:00.452Z,101397.03
2022-09-23T00:30:27.201Z,101392.63
2022-09-23T00:32:53.818Z,101382.94
2022-09-23T00:35:20.326Z,101389.13
2022-09-23T00:37:46.783Z,101387.41
2022-09-23T00:40:13.708Z,101384.25
2022-09-23T00:42:58.316Z,101388.91
2022-09-23T00:45:24.798Z,101386.34
2022-09-23T00:47:55.000Z,101389.81
2022-09-23T00:50:21.371Z,101387.84
2022-09-23T00:52:50.680Z,101389.00
2022-09-23T00:55:23.934Z,101383.84
2022-09-23T00:57:54.489Z,101384.63
2022-09-23T01:00:22.510Z,101376.13
2022-09-23T01:02:49.467Z,101378.53
2022-09-23T01:05:17.481Z,101374.16
2022-09-23T01:07:44.945Z,101374.41
2022-09-23T01:10:13.695Z,101362.97
2022-09-23T01:13:25.025Z,101371.84
2022-09-23T01:16:19.363Z,101374.41
2022-09-23T01:19:01.801Z,101373.50
2022-09-23T01:21:57.004Z,101369.03
2022-09-23T01:24:46.609Z,101369.09
2022-09-23T01:27:39.451Z,101368.75
2022-09-23T01:30:29.751Z,101372.91
2022-09-23T01:32:59.196Z,101368.19
2022-09-23T01:35:40.619Z,101354.72
2022-09-23T01:38:36.252Z,101361.22
2022-09-23T01:41:08.845Z,101356.81
2022-09-23T01:44:02.200Z,101352.69
2022-09-23T01:46:38.087Z,101357.03
2022-09-23T01:49:16.427Z,101353.63
2022-09-23T01:51:48.758Z,101348.22
2022-09-23T01:54:22.588Z,101353.84
2022-09-23T01:56:54.625Z,101350.75
2022-09-23T01:59:28.982Z,101342.06
2022-09-23T02:02:17.163Z,101348.81
2022-09-23T02:04:54.097Z,101349.97
2022-09-23T02:07:35.303Z,101347.94
2022-09-23T02:10:22.963Z,101341.75
2022-09-23T02:12:54.007Z,101334.88
2022-09-23T02:15:28.358Z,101341.84
2022-09-23T02:18:08.724Z,101342.91
2022-09-23T02:20:39.738Z,101335.44
2022-09-23T02:23:13.049Z,101336.94
2022-09-23T02:25:58.070Z,101337.00
2022-09-23T02:28:30.808Z,101332.69
2022-09-23T02:31:16.345Z,101325.88
2022-09-23T02:34:07.691Z,101329.41
2022-09-23T02:37:04.037Z,101327.81
2022-09-23T02:39:39.194Z,101327.66
2022-09-23T02:42:12.688Z,101322.56
2022-09-23T02:44:40.516Z,101322.56
2022-09-23T02:47:07.596Z,101317.53
2022-09-23T02:49:36.448Z,101314.66
2022-09-23T02:52:05.536Z,101310.41
2022-09-23T02:54:36.055Z,101313.81
2022-09-23T02:57:05.721Z,101313.88
2022-09-23T02:59:34.100Z,101308.34
2022-09-23T03:02:29.169Z,101314.75
2022-09-23T03:05:09.873Z,101304.09
2022-09-23T03:07:55.962Z,101302.50
2022-09-23T03:10:41.929Z,101305.88
2022-09-23T03:13:39.534Z,101304.59
2022-09-23T03:16:21.660Z,101299.00
2022-09-23T03:19:06.960Z,101304.91
2022-09-23T03:21:55.488Z,101298.16
2022-09-23T03:24:24.752Z,101291.16
2022-09-23T03:26:53.905Z,101291.88
2022-09-23T03:29:23.159Z,101286.91
2022-09-23T03:31:49.682Z,101283.28
2022-09-23T03:34:22.818Z,101297.72
2022-09-23T03:37:01.493Z,101292.19
2022-09-23T03:39:48.659Z,101289.41
2022-09-23T03:42:30.001Z,101296.66
2022-09-23T03:44:57.641Z,101293.88
2022-09-23T03:47:26.533Z,101290.03
2022-09-23T03:49:53.936Z,101287.69
2022-09-23T03:52:25.474Z,101286.19
2022-09-23T03:54:52.265Z,101292.09
2022-09-23T03:57:21.920Z,101289.47
2022-09-23T03:59:51.732Z,101294.66
2022-09-23T04:02:20.039Z,101283.06
2022-09-23T04:04:46.763Z,101281.34
2022-09-23T04:07:13.887Z,101280.34
2022-09-23T04:09:40.831Z,101278.72
2022-09-23T04:12:08.365Z,101266.09
2022-09-23T04:14:35.276Z,101266.09
2022-09-23T04:17:01.860Z,101259.47
2022-09-23T04:19:28.430Z,101257.09
2022-09-23T04:21:54.884Z,101254.44
2022-09-23T04:24:22.036Z,101257.94
2022-09-23T04:26:56.599Z,101257.94
2022-09-23T04:29:24.430Z,101257.78
2022-09-23T04:31:51.912Z,101257.78
2022-09-23T04:34:19.376Z,101253.66
2022-09-23T04:36:47.209Z,101252.13
2022-09-23T04:39:17.436Z,101246.94
2022-09-23T04:41:45.505Z,101243.94
2022-09-23T04:44:13.414Z,101243.88
2022-09-23T04:46:41.697Z,101237.78
2022-09-23T04:49:08.359Z,101234.38
2022-09-23T04:51:35.349Z,101238.31
2022-09-23T04:54:01.940Z,101234.00
2022-09-23T04:56:32.550Z,101239.09
2022-09-23T04:59:01.552Z,101233.13
2022-09-23T05:01:31.080Z,101232.03
2022-09-23T05:04:02.748Z,101235.66
2022-09-23T05:06:31.417Z,101234.28
2022-09-23T05:08:59.185Z,101237.78
2022-09-23T05:11:26.596Z,101239.47
2022-09-23T05:13:54.270Z,101241.31
2022-09-23T05:16:25.572Z,101232.22
2022-09-23T05:18:52.413Z,101239.19
2022-09-23T05:21:21.838Z,101239.47
2022-09-23T05:23:55.342Z,101247.22
2022-09-23T05:26:25.239Z,101243.38
2022-09-23T05:28:52.615Z,101247.56
2022-09-23T05:31:21.576Z,101244.31
2022-09-23T05:33:59.812Z,101248.06
2022-09-23T05:36:27.799Z,101243.88
2022-09-23T05:38:56.575Z,101243.25
2022-09-23T05:41:24.669Z,101247.22
2022-09-23T05:43:55.158Z,101254.38
2022-09-23T05:46:25.607Z,101244.22
2022-09-23T05:48:52.107Z,101251.28
2022-09-23T05:51:21.024Z,101244.47
2022-09-23T05:53:48.514Z,101247.94
2022-09-23T05:56:17.612Z,101253.19
2022-09-23T05:58:44.719Z,101256.88
2022-09-23T06:01:24.761Z,101254.38
2022-09-23T06:03:56.240Z,101261.44
2022-09-23T06:06:28.948Z,101256.53
2022-09-23T06:08:56.095Z,101249.91
2022-09-23T06:11:22.696Z,101255.09
2022-09-23T06:13:50.229Z,101255.22
2022-09-23T06:16:16.756Z,101252.88
2022-09-23T06:18:45.692Z,101254.84
2022-09-23T06:21:17.029Z,101255.22
2022-09-23T06:23:44.709Z,101244.22
2022-09-23T06:26:13.968Z,101242.88
2022-09-23T06:28:42.785Z,101250.41
2022-09-23T06:31:15.586Z,101247.22
2022-09-23T06:33:43.394Z,101239.09
2022-09-23T06:36:10.692Z,101247.59
2022-09-23T06:38:44.657Z,101251.63
2022-09-23T06:41:12.144Z,101248.63
2022-09-23T06:43:38.928Z,101250.66
2022-09-23T06:46:07.322Z,101248.28
2022-09-23T06:48:35.323Z,101249.63
2022-09-23T06:51:04.091Z,101247.63
2022-09-23T06:53:34.747Z,101252.66
2022-09-23T06:56:03.699Z,101257.91
2022-09-23T06:58:32.048Z,101248.69
2022-09-23T07:01:07.039Z,101254.72
2022-09-23T07:03:34.500Z,101248.69
2022-09-23T07:06:01.477Z,101252.66
2022-09-23T07:08:30.061Z,101252.47
2022-09-23T07:11:02.289Z,101255.25
2022-09-23T07:13:30.228Z,101250.97
2022-09-23T07:15:58.914Z,101256.00
2022-09-23T07:18:26.345Z,101254.53
2022-09-23T07:20:53.469Z,101255.41
2022-09-23T07:23:20.480Z,101256.75
2022-09-23T07:25:50.239Z,101256.50
2022-09-23T07:28:17.326Z,101252.22
2022-09-23T07:30:56.128Z,101258.59
2022-09-23T07:33:32.196Z,101260.03
2022-09-23T07:35:59.603Z,101265.78
2022-09-23T07:38:29.903Z,101260.75
2022-09-23T07:41:08.843Z,101261.72
2022-09-23T07:43:35.739Z,101264.38
2022-09-23T07:46:07.024Z,101253.09
2022-09-23T07:48:35.373Z,101252.75
2022-09-23T07:51:36.116Z,101252.25
2022-09-23T07:54:03.509Z,101251.66
2022-09-23T07:56:30.765Z,101266.28
2022-09-23T07:59:00.657Z,101260.78
2022-09-23T08:01:29.464Z,101268.88
2022-09-23T08:04:01.255Z,101265.97
2022-09-23T08:06:28.126Z,101265.88
2022-09-23T08:08:58.119Z,101256.34
2022-09-23T08:11:26.522Z,101256.84
2022-09-23T08:13:53.881Z,101255.31
2022-09-23T08:16:21.735Z,101265.16
2022-09-23T08:18:48.369Z,101266.13
2022-09-23T08:21:20.301Z,101256.13
2022-09-23T08:23:47.084Z,101261.56
2022-09-23T08:26:20.241Z,101256.00
2022-09-23T08:28:47.966Z,101255.84
2022-09-23T08:31:14.586Z,101254.38
2022-09-23T08:33:41.190Z,101251.31
2022-09-23T08:36:08.087Z,101251.50
2022-09-23T08:38:34.649Z,101249.09
2022-09-23T08:41:27.811Z,101249.63
2022-09-23T08:43:59.049Z,101246.47
2022-09-23T08:46:32.138Z,101245.94
2022-09-23T08:49:01.362Z,101251.47
2022-09-23T08:51:40.017Z,101264.41
2022-09-23T08:54:11.208Z,101259.69
2022-09-23T08:56:39.093Z,101244.13
2022-09-23T08:59:19.309Z,101253.09
2022-09-23T09:01:53.524Z,101244.97
2022-09-23T09:04:54.412Z,101255.38
2022-09-23T09:07:37.413Z,101250.41
2022-09-23T09:10:11.704Z,101243.03
2022-09-23T09:12:47.549Z,101245.31
2022-09-23T09:15:24.292Z,101245.97
2022-09-23T09:18:11.376Z,101246.19
2022-09-23T09:20:50.931Z,101252.97
2022-09-23T09:23:26.248Z,101246.84
2022-09-23T09:25:57.246Z,101251.53
2022-09-23T09:28:31.122Z,101241.44
2022-09-23T09:31:02.410Z,101240.03
2022-09-23T09:33:44.642Z,101241.44
2022-09-23T09:36:24.910Z,101236.50
2022-09-23T09:38:53.239Z,101226.56
2022-09-23T09:41:24.514Z,101224.06
2022-09-23T09:44:00.668Z,101225.38
2022-09-23T09:46:55.063Z,101226.38
2022-09-23T09:49:40.361Z,101216.22
2022-09-23T09:52:26.088Z,101221.44
2022-09-23T09:54:52.849Z,101211.91
2022-09-23T09:57:33.574Z,101217.16
2022-09-23T10:00:26.285Z,101217.31
2022-09-23T10:02:55.483Z,101211.28
2022-09-23T10:05:34.085Z,101210.63
2022-09-23T10:08:21.920Z,101203.88
2022-09-23T10:10:54.887Z,101208.34
2022-09-23T10:13:27.458Z,101205.38
2022-09-23T10:15:54.909Z,101201.56
2022-09-23T10:18:51.238Z,101209.84
2022-09-23T10:21:26.871Z,101201.34
2022-09-23T10:24:01.578Z,101204.84
2022-09-23T10:26:34.523Z,101208.56
2022-09-23T10:29:03.865Z,101202.72
2022-09-23T10:31:35.680Z,101208.03
2022-09-23T10:34:20.667Z,101217.56
2022-09-23T10:37:01.566Z,101204.34
2022-09-23T10:39:47.189Z,101196.56
2022-09-23T10:42:47.140Z,101201.69
2022-09-23T10:45:43.300Z,101196.78
2022-09-23T10:48:38.412Z,101192.00
2022-09-23T10:51:14.475Z,101184.91
2022-09-23T10:53:58.797Z,101193.38
2022-09-23T10:56:48.327Z,101189.66
2022-09-23T10:59:33.506Z,101190.19
2022-09-23T11:02:39.466Z,101182.66
2022-09-23T11:05:43.417Z,101187.72
2022-09-23T11:08:18.213Z,101183.94
2022-09-23T11:11:03.970Z,101182.22
2022-09-23T11:14:01.001Z,101176.13
2022-09-23T11:16:41.459Z,101179.84
2022-09-23T11:19:45.837Z,101173.91
2022-09-23T11:22:21.460Z,101172.75
2022-09-23T11:25:27.377Z,101178.56
2022-09-23T11:28:29.377Z,101170.28
2022-09-23T11:31:24.096Z,101162.41
2022-09-23T11:34:32.098Z,101156.72
2022-09-23T11:37:20.487Z,101156.63
2022-09-23T11:39:54.895Z,101152.81
2022-09-23T11:42:26.946Z,101144.84
2022-09-23T11:45:00.333Z,101151.22
2022-09-23T11:47:43.077Z,101149.72
2022-09-23T11:50:18.925Z,101159.47
2022-09-23T11:52:52.275Z,101141.69
2022-09-23T11:55:24.332Z,101146.06
2022-09-23T11:57:54.310Z,101138.47
2022-09-23T12:00:27.908Z,101132.91
2022-09-23T12:03:18.293Z,101141.66
2022-09-23T12:05:48.170Z,101140.25
2022-09-23T12:08:30.429Z,101133.72
2022-09-23T12:10:56.902Z,101130.31
2022-09-23T12:13:48.322Z,101128.41
2022-09-23T12:16:50.648Z,101131.88
2022-09-23T12:19:38.682Z,101122.22
2022-09-23T12:22:29.566Z,101124.34
2022-09-23T12:25:20.690Z,101130.19
2022-09-23T12:27:52.073Z,101120.75
2022-09-23T12:30:34.368Z,101118.13
2022-09-23T12:33:24.863Z,101107.28
2022-09-23T12:36:02.034Z,101117.13
2022-09-23T12:38:38.264Z,101120.44
2022-09-23T12:41:24.537Z,101106.53
2022-09-23T12:43:56.182Z,101112.19
2022-09-23T12:46:25.656Z,101111.81
2022-09-23T12:48:58.074Z,101105.44
2022-09-23T12:51:29.035Z,101110.03
2022-09-23T12:54:05.578Z,101113.53
2022-09-23T12:56:38.653Z,101111.94
2022-09-23T12:59:17.208Z,101108.81
2022-09-23T13:01:44.699Z,101106.47
2022-09-23T13:04:49.594Z,101108.28
2022-09-23T13:07:21.952Z,101109.13
2022-09-23T13:09:52.526Z,101107.06
2022-09-23T13:12:31.073Z,101102.34
2022-09-23T13:15:03.246Z,101098.22
2022-09-23T13:17:37.270Z,101101.88
2022-09-23T13:20:34.712Z,101096.91
2022-09-23T13:23:26.129Z,101096.16
2022-09-23T13:25:56.174Z,101089.41
2022-09-23T13:28:27.415Z,101093.81
2022-09-23T13:30:54.330Z,101091.53
2022-09-23T13:33:38.750Z,101092.50
2022-09-23T13:36:11.929Z,101085.25
2022-09-23T13:38:38.461Z,101083.56
2022-09-23T13:41:13.777Z,101085.81
2022-09-23T13:43:45.987Z,101091.59
2022-09-23T13:46:17.278Z,101085.53
2022-09-23T13:48:46.194Z,101084.06
2022-09-23T13:51:24.856Z,101084.94
2022-09-23T13:53:54.293Z,101083.28
2022-09-23T13:56:21.065Z,101078.56
2022-09-23T13:58:48.782Z,101083.91
2022-09-23T14:01:32.279Z,101079.31
2022-09-23T14:03:59.966Z,101078.56
2022-09-23T14:06:29.917Z,101072.81
2022-09-23T14:08:59.754Z,101072.81
2022-09-23T14:11:33.099Z,101059.66
2022-09-23T14:14:06.625Z,101056.63
2022-09-23T14:16:38.092Z,101055.06
2022-09-23T14:19:06.380Z,101049.63
2022-09-23T14:21:37.040Z,101051.16
2022-09-23T14:24:18.830Z,101048.38
2022-09-23T14:27:06.348Z,101050.59
2022-09-23T14:29:41.511Z,101052.91
2022-09-23T14:32:15.688Z,101044.53
2022-09-23T14:34:51.111Z,101052.41
2022-09-23T14:37:42.387Z,101040.06
2022-09-23T14:40:13.430Z,101040.94
2022-09-23T14:42:43.234Z,101034.03
2022-09-23T14:45:15.395Z,101035.16
2022-09-23T14:47:49.873Z,101039.84
2022-09-23T14:50:38.909Z,101034.88
2022-09-23T14:53:23.711Z,101030.94
2022-09-23T14:55:58.744Z,101027.66
2022-09-23T14:58:28.639Z,101024.84
2022-09-23T15:01:00.637Z,101024.28
2022-09-23T15:03:28.470Z,101023.19
2022-09-23T15:06:08.346Z,101022.56
2022-09-23T15:08:35.685Z,101016.44
2022-09-23T15:11:08.120Z,101011.81
2022-09-23T15:13:41.544Z,101007.84
2022-09-23T15:16:08.302Z,101008.94
2022-09-23T15:18:36.886Z,101003.50
2022-09-23T15:21:10.086Z,101004.38
2022-09-23T15:23:36.568Z,101003.75
2022-09-23T15:26:09.660Z,101002.16
2022-09-23T15:28:36.121Z,101007.38
2022-09-23T15:31:05.644Z,101012.78
2022-09-23T15:33:32.581Z,101016.06
2022-09-23T15:35:59.012Z,101007.13
2022-09-23T15:38:27.135Z,101007.13
2022-09-23T15:40:54.241Z,101002.16
2022-09-23T15:43:26.460Z,101002.97
2022-09-23T15:45:53.243Z,101013.84
2022-09-23T15:48:24.011Z,101002.84
2022-09-23T15:50:51.423Z,101001.75
2022-09-23T15:53:21.791Z,101000.31
2022-09-23T15:55:51.374Z,100999.13
2022-09-23T15:58:21.980Z,100998.66
2022-09-23T16:00:55.919Z,101008.53
2022-09-23T16:03:30.211Z,101009.63
2022-09-23T16:06:01.017Z,101010.47
2022-09-23T16:08:28.817Z,101011.19
2022-09-23T16:10:55.673Z,101007.06
2022-09-23T16:13:22.178Z,101008.78
2022-09-23T16:15:48.712Z,101007.44
2022-09-23T16:18:15.283Z,101013.47
2022-09-23T16:20:44.632Z,101014.81
2022-09-23T16:23:14.250Z,101008.78
2022-09-23T16:25:40.804Z,101001.16
2022-09-23T16:28:07.277Z,101014.16
2022-09-23T16:30:34.485Z,101003.56
2022-09-23T16:33:01.845Z,101000.06
2022-09-23T16:35:32.664Z,101000.56
2022-09-23T16:37:59.399Z,101000.81
2022-09-23T16:40:26.017Z,100997.78
2022-09-23T16:42:54.826Z,101001.88
2022-09-23T16:45:23.165Z,101000.44
2022-09-23T16:47:51.516Z,101003.09
2022-09-23T16:50:20.708Z,100999.09
2022-09-23T16:52:47.260Z,101004.69
2022-09-23T16:55:15.058Z,101003.59
2022-09-23T16:57:42.008Z,101002.03
2022-09-23T17:00:32.239Z,101006.47
2022-09-23T17:03:18.096Z,101006.47
2022-09-23T17:05:46.800Z,101005.25
2022-09-23T17:08:15.235Z,100995.38
2022-09-23T17:10:43.318Z,101002.63
2022-09-23T17:13:11.011Z,101002.88
2022-09-23T17:15:41.391Z,101001.88
2022-09-23T17:18:08.645Z,101003.72
2022-09-23T17:20:36.103Z,101002.97
2022-09-23T17:23:05.900Z,100992.59
2022-09-23T17:25:33.929Z,100990.91
2022-09-23T17:28:00.840Z,100985.81
2022-09-23T17:30:27.555Z,100989.56
2022-09-23T17:32:54.253Z,100995.47
2022-09-23T17:35:20.751Z,100990.28
2022-09-23T17:37:47.568Z,100982.19
2022-09-23T17:40:14.324Z,100975.22
2022-09-23T17:42:41.398Z,100981.47
2022-09-23T17:45:12.422Z,100980.75
2022-09-23T17:47:41.851Z,100978.47
2022-09-23T17:50:08.668Z,100985.09
2022-09-23T17:52:35.198Z,100985.31
2022-09-23T17:55:01.796Z,100991.72
2022-09-23T17:57:28.259Z,100987.97
2022-09-23T17:59:56.033Z,100983.97
2022-09-23T18:02:22.807Z,100982.41
2022-09-23T18:04:49.687Z,100979.75
2022-09-23T18:07:16.519Z,100973.47
2022-09-23T18:09:43.011Z,100974.53
2022-09-23T18:12:09.563Z,100977.41
2022-09-23T18:14:36.108Z,100974.19
2022-09-23T18:17:02.678Z,100979.09
2022-09-23T18:19:29.327Z,100967.00
2022-09-23T18:21:57.215Z,100971.22
2022-09-23T18:24:33.029Z,100970.28
2022-09-23T18:27:01.260Z,100974.97
2022-09-23T18:29:28.070Z,100976.78
2022-09-23T18:31:54.664Z,100976.06
2022-09-23T18:34:21.290Z,100982.31
2022-09-23T18:36:47.812Z,100982.31
2022-09-23T18:39:15.107Z,100979.06
2022-09-23T18:41:41.634Z,100981.09
2022-09-23T18:44:08.349Z,100982.78
2022-09-23T18:46:35.415Z,100978.34
2022-09-23T18:49:20.679Z,100986.50
2022-09-23T18:51:50.908Z,100993.00
2022-09-23T18:54:18.298Z,100990.53
2022-09-23T18:56:46.324Z,100992.59
2022-09-23T18:59:16.612Z,100998.09
2022-09-23T19:01:45.767Z,100987.41
2022-09-23T19:04:14.095Z,100997.03
2022-09-23T19:06:40.677Z,100992.44
2022-09-23T19:09:08.064Z,100995.25
2022-09-23T19:11:36.174Z,100995.34
2022-09-23T19:14:05.640Z,100986.66
2022-09-23T19:16:34.803Z,100984.22
2022-09-23T19:19:02.579Z,100996.84
2022-09-23T19:21:30.383Z,100996.47
2022-09-23T19:24:05.695Z,100991.28
2022-09-23T19:26:38.140Z,100998.28
2022-09-23T19:29:06.240Z,100997.56
2022-09-23T19:31:35.319Z,100994.03
2022-09-23T19:34:05.923Z,100993.09
2022-09-23T19:36:34.419Z,100998.50
2022-09-23T19:39:04.225Z,100993.44
2022-09-23T19:41:33.288Z,100986.31
2022-09-23T19:44:07.033Z,100988.13
2022-09-23T19:46:37.111Z,100988.34
2022-09-23T19:49:05.555Z,100983.16
2022-09-23T19:51:35.691Z,100980.41
2022-09-23T19:54:04.496Z,100975.94
2022-09-23T19:56:32.336Z,100973.28
2022-09-23T19:59:00.034Z,100971.50
2022-09-23T20:01:29.303Z,100969.69
2022-09-23T20:03:56.250Z,100962.47
2022-09-23T20:06:22.868Z,100954.63
2022-09-23T20:08:49.807Z,100954.22
2022-09-23T20:11:18.958Z,100953.22
2022-09-23T20:13:49.908Z,100951.88
2022-09-23T20:16:19.435Z,100948.69
2022-09-23T20:18:47.042Z,100949.75
2022-09-23T20:21:15.568Z,100953.16
2022-09-23T20:23:42.590Z,100954.72
2022-09-23T20:26:28.473Z,100949.56
2022-09-23T20:28:55.247Z,100953.78
2022-09-23T20:31:23.038Z,100954.72
2022-09-23T20:33:53.643Z,100954.63
2022-09-23T20:36:20.124Z,100961.63
2022-09-23T20:38:46.640Z,100954.63
2022-09-23T20:41:14.485Z,100956.31
2022-09-23T20:43:41.602Z,100951.63
2022-09-23T20:46:09.103Z,100955.34
2022-09-23T20:48:35.601Z,100949.66
2022-09-23T20:51:03.841Z,100945.34
2022-09-23T20:53:31.792Z,100949.47
2022-09-23T20:55:59.457Z,100945.25
2022-09-23T20:58:27.659Z,100935.69
2022-09-23T21:00:59.211Z,100944.28
2022-09-23T21:03:26.542Z,100938.34
2022-09-23T21:05:53.046Z,100932.31
2022-09-23T21:08:19.870Z,100928.72
2022-09-23T21:10:54.260Z,100929.91
2022-09-23T21:13:20.811Z,100928.19
2022-09-23T21:15:47.348Z,100929.91
2022-09-23T21:18:17.131Z,100931.94
2022-09-23T21:20:54.442Z,100931.09
2022-09-23T21:23:25.070Z,100944.53
2022-09-23T21:25:51.998Z,100929.50
2022-09-23T21:28:19.009Z,100931.19
2022-09-23T21:30:51.132Z,100928.44
2022-09-23T21:33:18.362Z,100923.25
2022-09-23T21:35:44.822Z,100930.03
2022-09-23T21:38:11.301Z,100931.84
2022-09-23T21:40:56.161Z,100931.00
2022-09-23T21:43:23.681Z,100933.53
2022-09-23T21:45:56.910Z,100924.63
2022-09-23T21:48:24.246Z,100923.47
2022-09-23T21:50:55.077Z,100929.72
2022-09-23T21:53:23.624Z,100933.94
2022-09-23T21:55:50.708Z,100934.03
2022-09-23T21:58:17.315Z,100931.28
2022-09-23T22:00:43.982Z,100933.00
2022-09-23T22:03:11.987Z,100933.75
2022-09-23T22:05:41.593Z,100934.69
2022-09-23T22:08:09.125Z,100934.69
2022-09-23T22:10:37.264Z,100930.56
2022-09-23T22:13:08.141Z,100940.41
2022-09-23T22:15:38.445Z,100931.53
2022-09-23T22:18:05.388Z,100940.41
2022-09-23T22:20:33.053Z,100934.72
2022-09-23T22:22:59.629Z,100941.59
2022-09-23T22:25:26.159Z,100938.41
2022-09-23T22:28:11.030Z,100941.50
2022-09-23T22:30:57.386Z,100944.97
2022-09-23T22:33:23.963Z,100936.75
2022-09-23T22:35:50.923Z,100934.63
2022-09-23T22:38:18.946Z,100943.94
2022-09-23T22:40:45.485Z,100936.81
2022-09-23T22:43:12.088Z,100940.34
2022-09-23T22:45:39.588Z,100941.31
2022-09-23T22:48:06.090Z,100939.50
2022-09-23T22:50:32.566Z,100946.06
2022-09-23T22:52:59.599Z,100936.00
2022-09-23T22:55:26.130Z,100942.25
2022-09-23T22:57:52.617Z,100940.66
2022-09-23T23:00:19.506Z,100943.81
2022-09-23T23:02:46.345Z,100931.66
2022-09-23T23:05:14.434Z,100930.28
2022-09-23T23:07:41.381Z,100931.88
2022-09-23T23:10:10.346Z,100930.91
2022-09-23T23:12:37.137Z,100934.84
2022-09-23T23:15:03.867Z,100933.25
2022-09-23T23:17:30.357Z,100931.47
2022-09-23T23:19:57.808Z,100936.34
2022-09-23T23:22:27.175Z,100926.25
2022-09-23T23:24:54.584Z,100929.88
2022-09-23T23:27:21.135Z,100918.66
2022-09-23T23:29:47.686Z,100921.06
2022-09-23T23:32:14.195Z,100911.75
2022-09-23T23:34:40.706Z,100910.91
2022-09-23T23:37:07.470Z,100909.84
2022-09-23T23:39:34.077Z,100909.94
2022-09-23T23:42:00.771Z,100912.72
2022-09-23T23:44:27.485Z,100905.63
2022-09-23T23:46:54.914Z,100902.63
2022-09-23T23:49:21.906Z,100902.63
2022-09-23T23:51:48.893Z,100904.34
2022-09-23T23:54:15.578Z,100901.91
2022-09-23T23:56:42.427Z,100904.34
2022-09-23T23:59:08.896Z,100899.88
